If you wish to contribute or participate in the discussions about articles you are invited to join SKYbrary as a registered user

 Actions

Anvik Airport

From SKYbrary Wiki

PANV
Airport
ICAO: PANV – IATA: ANV
Summary
Name Anvik Airport
Region North America
Territory Alaska US.gif
Location , Alaska
Serving Anvik
Elevation 88.697 m
291 ft
291 ft88.697 m
Type medium airport
Coordinates 62° 38' 48.12", -160° 11' 27.6"
Runways
Designator Length Width Surface ROPS
17/35 902 m2,959.318 ft 23 m75.459 ft GVL /


METAR
Observation PANV 221003Z AUTO 15005KT 1 3/4SM BR BKN003 BKN008 OVC015 08/08 A2942 RMK AO2 VIS 1 1/4V5
Station Anvik, Anvik Airport
Date/Time 22 September 2018 10:03:00
Wind direction 150°
Wind speed 05 kts
Lowest cloud amount broken clouds
Temperature 8°C
Dew point 8°C
Humidity 100%
QNH hPa
Weather condition mist